Terminal Aerodrome Forecast
Issued by NWS

Home | Current Version | Previous Version | Text Only | Print | Product List | Glossary On
Versions: 1 2 3 4 5 6 7 8 9 10 11 12 13
106
FTUS44 KBMX 151738
TAFTOI
TAF
KTOI 151738Z 1518/1618 33009G18KT P6SM OVC250
     FM160300 32003KT P6SM BKN250
     FM161500 07003KT P6SM BKN250=

USA.gov is the U.S. government's official web portal to all federal, state and local government web resources and services.